Timeline UpdatesTrip UpdatesNews PostsPvt PostsTravel TipsAdmin PostsConv PostsFollowed PostsChat RequestsBlog PostsPNR Posts

Disclaimer
Search
 
 
Fri Aug 22, 2014 07:28:05 ISTHomeTrainsΣChainsAtlasPNRForumGalleryNewsFAQTripsMembersLoginFeedback
No Recent News for this Train
Other Trains in the News **new
Latest...
.
Fri Jun 21, 2013 (01:39AM)
⇐ Return Journey: Train# 14312

14311/Ala Hazrat Express (via Ahmedabad)

Feb 28 2014 (7:37PM)
Change Departure Station:
Change Arrival Station:
Post a Train Travel TipPost a Train Travel Tip **new
Post a Comment/Question/Picture/VideoPost a Comment/Question/Picture/Video
Pantry/Catering
✕ NO Pantry Car
✓ Catering Avbl
Loco/Rake Reversals
GIMB/Gandhidham Junction (3); ADI/Ahmedabad Junction (12);
RSA - Rake Sharing
Rake/Coach Composition
SLR- GEN-S1 TO S10, B2, B1, A1- GEN
Loco
WDM 3d 11170 of IZN
News    PNR    Forum    Time-Table    Availability    Fare Chart    Map    Arr/Dep History    Trips    Gallery    ΣChains    X/O    Timeline    
Travel Time: 27h 55m    37 halts    Distance: 1343 km    Avg Speed: 48 km/hr
Type: Mail/Express
Zone: NR/Northern
Departs @ 10:05 (Avg 20m late)
Platform# 1
S   TF 
Pilkhua/PKW 
Arrives @ 14:00 +1 night (Avg 19m late)
Platform# 2
 M   FS
Bhuj/BHUJ 

37 halts. 213 intermediate Stations between Pilkhua and Bhuj

Show ALL intermediate Stations  Show Old Time-Table

#CodeStation NameX/OArrivesAvgDepartsAvgHaltPFDay#KmSpeedElevZoneAddress
1BEBareilly Junction (4)  -06:05+141-205.463174mNRBareilly, Uttar Pradesh
2MILMilak  06:43+1206:45+132m--1-165.566180mNRMilak, Uttar Pradesh
3RMURampur Junction (3)X  07:06+1907:08+262m--1-142.426190mNRRampur, Uttar Pradesh
4MBMoradabad Junction (7)  08:10+808:20+1110m11-115.168201mNRMoradabad, Uttar Pradesh
5AMROAmroha (3)X  08:47+1708:49+182m21-84.676217mNRAmroha, Uttar Pradesh
6HPUHapur Junction (4)  09:47+1609:52+155m11-11.161214mNRHapur Jn., Uttar Pradesh
7PKW»Pilkhua (3)»X10:03+2010:05+202m110.036218mNRPilkhuwa, Uttar Pradesh
8GZBGhaziabad Junction (6)X  10:48+1510:50+152m3125.634217mNRGhaziabad, Uttar Pradesh
9DLIOld Delhi Junction (16)  11:25+2711:40+2915m12145.618219mNRNear Chandni Chowk Metro Station, Delhi NCT
10DEEDelhi Sarai Rohilla (5)X  11:55+3511:57+342m1150.036226mNRNew Rohtak road, Delhi NCT
11DECDelhi Cantt. (5)  12:13+3512:15+352m1159.738217mNRDelhi, Delhi NCT
12PMPalam (3)X  12:21+3612:23+372m2163.567222mNRNew Delhi - 110010, Delhi NCT
13GGNGurgaon (3)  12:35+3612:37+352m1176.966217mNRGurgaon, Haryana
14GHHGarhi Harsaru (3)  12:46+3612:48+362m--186.879220mNRGurgaon, Haryana
15PTRDPataudi RoadX  13:03+3213:05+252m--1106.533227mNRHailley Mandi, Haryana
16RERewari Junction (8)  13:45+3913:55+3410m11128.284245mNWRRewari, Haryana
17KRHKhairthal (2)  14:29+4714:31+482m21175.878305mNWRKhairthal, Rajasthan
18AWRAlwar Junction (2)  14:52+5014:55+523m21203.088267mNWRAlwar, Rajasthan
19MKHMalakhera (1)X  15:08+5715:10+572m11222.178265mNWRMala Khera, Rajasthan
20RHGRajgarh (2)15:23+1:0015:25+1:002m--1239.174303mNWRRajgarh, Rajasthan
21BKIBandikui Junction (6)X  15:45+1:0115:50+1:015m--1263.686283mNWRBandikui, Rajasthan
22DODausa (2)X  16:10+1:1116:12+1:112m11292.455333mNWRDausa, Rajasthan
23GADJJaipur Gandhinagar (2)X  17:13+5617:15+582m--1348.416426mNWRJaipur, Rajasthan
24JPJaipur Junction (7)X  17:35+4918:00+3925m21353.983434mNWRJaipur, Rajasthan
25FLPhulera Junction (5)  18:40+4118:42+412m--1408.966386mNWRPhulera, Rajasthan
26NRINarainaX  18:51+4618:53+472m--1418.979377mNWRAjmer, Rajasthan
27KSGKishangarh (3)X  19:24+4419:26+442m11459.827443mNWRKishangarh, Rajasthan
28AIIAjmer Junction (5)X  20:30+3120:35+425m21488.575464mNWRPin: 305001, Rajasthan
29BERBeawar (2)  21:17+5321:19+532m--1540.881447mNWRBeawar, Rajasthan
30MJMarwar Junction (4)  22:24+1:0222:26+1:092m21628.165267mNWRMarwar Junction, Rajasthan
31FAFalna (2)X  23:27+1:1123:29+1:122m--1694.669282mNWRFalna, Rajasthan
32ABRAbu Road (3)X  00:55+1:1701:05+1:1410m22793.533264mNWRSirohi Dist, Rajasthan
33PNUPalanpur Junction (5)  02:40+3902:42+462m22846.145216mWRPalanpur, Gujarat
34MSHMahesana Junction (6)  04:08+3904:10+452m12911.13595mWRMehsana, Gujarat
35ADIAhmedabad Junction (12)X06:15+3206:45+4030m12984.15451mWRAhmedabad, Gujarat
36VGViramgam Junction (5)  07:58+4408:00+452m121049.55729mWRViramgam, Gujarat
37DHGDhrangadhra Junction (3)  09:08+4109:10+412m--21114.26654mWRDhrangadhra, Gujarat
38HVDHalvad  09:38+4409:40+442m--21145.17346mWRHalvad, Gujarat
39MALBMaliya Miyana Junction (2)10:18+4510:20+452m--21191.1456mWRMalia, Gujarat
40SIOBSamakhiali Junction (3)  11:12+3311:14+332m121230.36442mWRSamakhiali, Gujarat
41BCOBBhachau (3)  11:29+3711:31+362m121246.25244mWRBhachau, Gujarat
42GIMBGandhidham Junction (3)12:15+3112:40+3225m121284.16612mWRGandhidham, Gujarat
43AIAdipur Junction (2)  12:48+4012:50+412m--21292.94436mWRDist. Kachchh, Gujarat
44AJEAnjar (1)  13:00+4213:02+412m121300.24553mWRAnjar, Gujarat
45BHUJ•Bhuj (3)•  14:00+19-221343.2-89mWRBhuj - 370201, Gujarat
Scroll to Top
Scroll to Bottom